createdAt,value
2023-02-19T00:01:31.914Z,100.00
2023-02-19T00:04:01.636Z,100.00
2023-02-19T00:06:30.751Z,100.00
2023-02-19T00:08:58.316Z,100.00
2023-02-19T00:11:28.353Z,100.00
2023-02-19T00:13:57.652Z,100.00
2023-02-19T00:16:30.618Z,100.00
2023-02-19T00:18:58.955Z,100.00
2023-02-19T00:21:26.526Z,100.00
2023-02-19T00:23:56.141Z,100.00
2023-02-19T00:26:23.147Z,100.00
2023-02-19T00:28:51.766Z,100.00
2023-02-19T00:31:18.853Z,100.00
2023-02-19T00:33:47.252Z,100.00
2023-02-19T00:36:15.770Z,100.00
2023-02-19T00:38:43.812Z,100.00
2023-02-19T00:41:21.054Z,100.00
2023-02-19T00:43:54.886Z,100.00
2023-02-19T00:46:35.151Z,100.00
2023-02-19T00:49:03.502Z,100.00
2023-02-19T00:51:33.360Z,100.00
2023-02-19T00:54:00.581Z,100.00
2023-02-19T00:56:28.022Z,100.00
2023-02-19T00:58:55.322Z,100.00
2023-02-19T01:01:22.596Z,100.00
2023-02-19T01:03:51.273Z,100.00
2023-02-19T01:06:19.711Z,100.00
2023-02-19T01:08:46.772Z,100.00
2023-02-19T01:11:14.315Z,100.00
2023-02-19T01:13:42.207Z,100.00
2023-02-19T01:16:18.921Z,100.00
2023-02-19T01:18:46.577Z,100.00
2023-02-19T01:21:17.210Z,100.00
2023-02-19T01:23:44.669Z,100.00
2023-02-19T01:26:14.422Z,100.00
2023-02-19T01:28:41.695Z,100.00
2023-02-19T01:31:13.721Z,100.00
2023-02-19T01:33:46.024Z,100.00
2023-02-19T01:36:13.378Z,100.00
2023-02-19T01:38:40.785Z,100.00
2023-02-19T01:41:12.380Z,100.00
2023-02-19T01:44:04.081Z,100.00
2023-02-19T01:46:33.010Z,100.00
2023-02-19T01:49:06.429Z,100.00
2023-02-19T01:51:36.351Z,100.00
2023-02-19T01:54:06.255Z,100.00
2023-02-19T01:56:36.566Z,100.00
2023-02-19T01:59:03.641Z,100.00
2023-02-19T02:01:30.511Z,100.00
2023-02-19T02:03:57.763Z,100.00
2023-02-19T02:06:30.841Z,100.00
2023-02-19T02:09:17.961Z,100.00
2023-02-19T02:11:49.431Z,100.00
2023-02-19T02:14:24.306Z,100.00
2023-02-19T02:17:12.332Z,100.00
2023-02-19T02:19:48.053Z,100.00
2023-02-19T02:22:33.821Z,100.00
2023-02-19T02:25:23.226Z,100.00
2023-02-19T02:28:11.113Z,100.00
2023-02-19T02:30:47.451Z,100.00
2023-02-19T02:33:26.578Z,100.00
2023-02-19T02:36:03.638Z,100.00
2023-02-19T02:38:33.250Z,100.00
2023-02-19T02:41:00.574Z,100.00
2023-02-19T02:43:27.967Z,100.00
2023-02-19T02:46:02.896Z,100.00
2023-02-19T02:48:38.549Z,100.00
2023-02-19T02:51:43.635Z,100.00
2023-02-19T02:54:42.342Z,100.00
2023-02-19T02:57:15.103Z,100.00
2023-02-19T02:59:49.370Z,100.00
2023-02-19T03:02:26.484Z,100.00
2023-02-19T03:05:22.348Z,100.00
2023-02-19T03:08:01.018Z,100.00
2023-02-19T03:10:53.236Z,100.00
2023-02-19T03:13:45.878Z,100.00
2023-02-19T03:16:44.940Z,100.00
2023-02-19T03:19:21.850Z,100.00
2023-02-19T03:21:57.037Z,100.00
2023-02-19T03:24:48.619Z,100.00
2023-02-19T03:27:20.227Z,100.00
2023-02-19T03:29:52.208Z,100.00
2023-02-19T03:32:24.997Z,100.00
2023-02-19T03:34:59.686Z,100.00
2023-02-19T03:37:35.146Z,100.00
2023-02-19T03:40:02.315Z,100.00
2023-02-19T03:42:41.021Z,100.00
2023-02-19T03:45:14.085Z,100.00
2023-02-19T03:47:54.712Z,100.00
2023-02-19T03:50:55.917Z,100.00
2023-02-19T03:53:32.669Z,100.00
2023-02-19T03:56:27.587Z,100.00
2023-02-19T03:59:02.486Z,100.00
2023-02-19T04:01:44.817Z,100.00
2023-02-19T04:04:18.464Z,100.00
2023-02-19T04:06:52.900Z,100.00
2023-02-19T04:09:21.966Z,100.00
2023-02-19T04:11:55.481Z,100.00
2023-02-19T04:14:38.243Z,100.00
2023-02-19T04:17:17.240Z,100.00
2023-02-19T04:19:47.176Z,100.00
2023-02-19T04:22:17.020Z,100.00
2023-02-19T04:24:49.118Z,100.00
2023-02-19T04:27:16.453Z,100.00
2023-02-19T04:29:43.423Z,100.00
2023-02-19T04:32:11.876Z,100.00
2023-02-19T04:34:38.955Z,100.00
2023-02-19T04:37:06.009Z,100.00
2023-02-19T04:39:33.589Z,100.00
2023-02-19T04:42:00.580Z,100.00
2023-02-19T04:44:27.495Z,100.00
2023-02-19T04:46:54.492Z,100.00
2023-02-19T04:49:21.283Z,100.00
2023-02-19T04:51:48.224Z,100.00
2023-02-19T04:54:15.134Z,100.00
2023-02-19T04:56:42.035Z,100.00
2023-02-19T04:59:08.925Z,100.00
2023-02-19T05:01:36.106Z,100.00
2023-02-19T05:04:04.708Z,100.00
2023-02-19T05:06:31.614Z,100.00
2023-02-19T05:08:58.835Z,100.00
2023-02-19T05:11:25.773Z,100.00
2023-02-19T05:13:52.672Z,100.00
2023-02-19T05:16:19.539Z,100.00
2023-02-19T05:18:47.331Z,100.00
2023-02-19T05:21:14.819Z,100.00
2023-02-19T05:23:42.528Z,100.00
2023-02-19T05:26:18.131Z,100.00
2023-02-19T05:28:52.594Z,100.00
2023-02-19T05:31:20.212Z,100.00
2023-02-19T05:33:51.213Z,100.00
2023-02-19T05:36:20.482Z,100.00
2023-02-19T05:38:48.111Z,100.00
2023-02-19T05:41:17.617Z,100.00
2023-02-19T05:43:46.350Z,100.00
2023-02-19T05:46:16.100Z,100.00
2023-02-19T05:48:43.545Z,100.00
2023-02-19T05:51:13.339Z,100.00
2023-02-19T05:53:40.647Z,100.00
2023-02-19T05:56:26.231Z,100.00
2023-02-19T05:58:54.132Z,100.00
2023-02-19T06:01:23.051Z,100.00
2023-02-19T06:03:58.558Z,100.00
2023-02-19T06:06:27.044Z,100.00
2023-02-19T06:08:54.379Z,100.00
2023-02-19T06:11:21.937Z,100.00
2023-02-19T06:13:50.490Z,100.00
2023-02-19T06:16:18.479Z,100.00
2023-02-19T06:18:46.242Z,100.00
2023-02-19T06:21:15.044Z,100.00
2023-02-19T06:23:42.064Z,100.00
2023-02-19T06:26:18.305Z,100.00
2023-02-19T06:28:46.566Z,100.00
2023-02-19T06:31:14.466Z,100.00
2023-02-19T06:33:42.371Z,100.00
2023-02-19T06:36:13.991Z,100.00
2023-02-19T06:38:41.095Z,100.00
2023-02-19T06:41:10.097Z,100.00
2023-02-19T06:43:37.639Z,100.00
2023-02-19T06:46:07.020Z,100.00
2023-02-19T06:48:35.024Z,100.00
2023-02-19T06:51:02.019Z,100.00
2023-02-19T06:53:29.083Z,100.00
2023-02-19T06:56:01.274Z,100.00
2023-02-19T06:58:28.713Z,100.00
2023-02-19T07:00:55.784Z,100.00
2023-02-19T07:03:23.411Z,100.00
2023-02-19T07:05:50.532Z,100.00
2023-02-19T07:08:17.599Z,100.00
2023-02-19T07:10:45.593Z,100.00
2023-02-19T07:13:12.607Z,100.00
2023-02-19T07:15:39.561Z,100.00
2023-02-19T07:18:10.590Z,100.00
2023-02-19T07:20:38.038Z,100.00
2023-02-19T07:23:04.891Z,100.00
2023-02-19T07:25:32.127Z,100.00
2023-02-19T07:27:59.053Z,100.00
2023-02-19T07:30:26.042Z,100.00
2023-02-19T07:32:52.953Z,100.00
2023-02-19T07:35:19.797Z,100.00
2023-02-19T07:37:46.680Z,100.00
2023-02-19T07:40:13.611Z,100.00
2023-02-19T07:42:40.549Z,100.00
2023-02-19T07:45:07.878Z,100.00
2023-02-19T07:47:35.394Z,100.00
2023-02-19T07:50:02.328Z,100.00
2023-02-19T07:52:29.196Z,100.00
2023-02-19T07:54:56.051Z,100.00
2023-02-19T07:57:22.850Z,100.00
2023-02-19T07:59:49.819Z,100.00
2023-02-19T08:02:37.620Z,100.00
2023-02-19T08:05:06.349Z,100.00
2023-02-19T08:07:34.910Z,100.00
2023-02-19T08:10:21.779Z,100.00
2023-02-19T08:13:25.573Z,100.00
2023-02-19T08:15:57.763Z,100.00
2023-02-19T08:18:31.422Z,100.00
2023-02-19T08:20:59.895Z,100.00
2023-02-19T08:23:28.129Z,100.00
2023-02-19T08:25:58.489Z,100.00
2023-02-19T08:28:25.442Z,100.00
2023-02-19T08:30:52.858Z,100.00
2023-02-19T08:33:21.390Z,100.00
2023-02-19T08:35:48.306Z,100.00
2023-02-19T08:38:16.607Z,99.85
2023-02-19T08:40:44.159Z,99.50
2023-02-19T08:43:13.836Z,99.30
2023-02-19T08:45:43.328Z,98.21
2023-02-19T08:48:11.219Z,97.95
2023-02-19T08:50:38.922Z,97.84
2023-02-19T08:53:06.673Z,96.73
2023-02-19T08:55:34.004Z,95.97
2023-02-19T08:58:01.200Z,94.40
2023-02-19T09:00:28.197Z,95.27
2023-02-19T09:02:55.130Z,95.93
2023-02-19T09:05:22.029Z,95.82
2023-02-19T09:07:48.918Z,95.86
2023-02-19T09:10:15.794Z,96.60
2023-02-19T09:12:42.740Z,97.51
2023-02-19T09:15:09.859Z,97.25
2023-02-19T09:17:36.786Z,98.48
2023-02-19T09:20:04.419Z,98.05
2023-02-19T09:22:31.388Z,96.99
2023-02-19T09:24:58.169Z,97.45
2023-02-19T09:27:25.043Z,98.14
2023-02-19T09:29:51.951Z,97.77
2023-02-19T09:32:19.353Z,96.85
2023-02-19T09:34:46.420Z,95.50
2023-02-19T09:37:13.303Z,96.01
2023-02-19T09:39:40.109Z,95.03
2023-02-19T09:42:15.658Z,94.64
2023-02-19T09:44:47.433Z,93.28
2023-02-19T09:47:21.106Z,93.63
2023-02-19T09:49:51.494Z,93.21
2023-02-19T09:52:23.084Z,91.53
2023-02-19T09:54:50.886Z,92.38
2023-02-19T09:57:21.565Z,92.74
2023-02-19T09:59:52.433Z,93.54
2023-02-19T10:02:22.023Z,91.79
2023-02-19T10:04:51.476Z,92.28
2023-02-19T10:07:24.192Z,93.59
2023-02-19T10:09:57.203Z,95.28
2023-02-19T10:12:30.572Z,96.42
2023-02-19T10:15:11.292Z,95.71
2023-02-19T10:17:38.309Z,95.17
2023-02-19T10:20:05.511Z,94.38
2023-02-19T10:22:35.996Z,93.14
2023-02-19T10:25:03.277Z,92.35
2023-02-19T10:27:33.542Z,89.64
2023-02-19T10:30:01.472Z,88.58
2023-02-19T10:32:29.720Z,91.61
2023-02-19T10:35:09.951Z,92.58
2023-02-19T10:37:44.596Z,90.91
2023-02-19T10:40:23.426Z,91.21
2023-02-19T10:43:34.110Z,91.88
2023-02-19T10:46:14.791Z,91.55
2023-02-19T10:48:49.957Z,92.37
2023-02-19T10:51:21.783Z,93.20
2023-02-19T10:54:04.782Z,90.67
2023-02-19T10:56:33.786Z,89.78
2023-02-19T10:59:24.584Z,89.47
2023-02-19T11:02:02.638Z,88.04
2023-02-19T11:04:35.290Z,89.58
2023-02-19T11:07:19.229Z,90.12
2023-02-19T11:09:49.869Z,87.97
2023-02-19T11:12:26.459Z,88.87
2023-02-19T11:14:53.485Z,88.90
2023-02-19T11:17:26.412Z,84.69
2023-02-19T11:20:12.958Z,85.93
2023-02-19T11:22:43.060Z,84.27
2023-02-19T11:25:16.520Z,81.64
2023-02-19T11:28:07.268Z,82.60
2023-02-19T11:30:36.536Z,82.52
2023-02-19T11:33:27.576Z,81.61
2023-02-19T11:36:01.143Z,80.29
2023-02-19T11:38:28.558Z,79.85
2023-02-19T11:41:11.376Z,79.82
2023-02-19T11:43:56.070Z,78.55
2023-02-19T11:46:44.484Z,78.46
2023-02-19T11:49:41.793Z,77.71
2023-02-19T11:52:26.179Z,77.84
2023-02-19T11:55:21.806Z,75.17
2023-02-19T11:58:10.254Z,76.03
2023-02-19T12:00:57.792Z,76.76
2023-02-19T12:03:43.290Z,78.27
2023-02-19T12:06:17.479Z,75.55
2023-02-19T12:09:43.077Z,76.90
2023-02-19T12:12:36.796Z,77.68
2023-02-19T12:15:27.785Z,76.92
2023-02-19T12:18:12.049Z,76.02
2023-02-19T12:20:53.929Z,76.41
2023-02-19T12:23:29.341Z,77.78
2023-02-19T12:26:18.479Z,76.35
2023-02-19T12:29:06.895Z,72.94
2023-02-19T12:32:00.533Z,74.16
2023-02-19T12:34:48.633Z,73.12
2023-02-19T12:37:27.291Z,71.92
2023-02-19T12:40:26.318Z,70.55
2023-02-19T12:43:18.089Z,70.94
2023-02-19T12:45:52.534Z,71.06
2023-02-19T12:48:25.249Z,72.50
2023-02-19T12:51:05.611Z,72.51
2023-02-19T12:53:45.472Z,71.92
2023-02-19T12:56:21.499Z,71.41
2023-02-19T12:58:56.244Z,69.22
2023-02-19T13:01:28.627Z,70.39
2023-02-19T13:04:14.147Z,68.52
2023-02-19T13:07:07.370Z,68.67
2023-02-19T13:09:37.475Z,67.84
2023-02-19T13:12:11.556Z,66.35
2023-02-19T13:14:43.729Z,66.39
2023-02-19T13:17:43.130Z,64.55
2023-02-19T13:20:29.866Z,64.11
2023-02-19T13:23:25.001Z,63.52
2023-02-19T13:26:06.739Z,62.29
2023-02-19T13:29:00.627Z,62.44
2023-02-19T13:31:39.727Z,64.20
2023-02-19T13:34:23.002Z,64.26
2023-02-19T13:36:50.315Z,66.03
2023-02-19T13:39:20.751Z,66.27
2023-02-19T13:41:55.573Z,65.40
2023-02-19T13:44:26.721Z,64.06
2023-02-19T13:46:53.824Z,63.85
2023-02-19T13:49:23.270Z,63.81
2023-02-19T13:51:55.644Z,63.69
2023-02-19T13:54:33.611Z,62.77
2023-02-19T13:57:25.280Z,63.21
2023-02-19T13:59:57.915Z,62.93
2023-02-19T14:02:30.765Z,63.76
2023-02-19T14:05:10.979Z,64.59
2023-02-19T14:07:54.159Z,65.40
2023-02-19T14:10:58.105Z,65.59
2023-02-19T14:14:06.641Z,64.97
2023-02-19T14:16:37.988Z,64.97
2023-02-19T14:19:14.566Z,64.26
2023-02-19T14:21:43.989Z,64.68
2023-02-19T14:24:16.630Z,65.60
2023-02-19T14:26:43.694Z,66.99
2023-02-19T14:29:14.809Z,67.71
2023-02-19T14:31:46.121Z,67.32
2023-02-19T14:34:19.687Z,66.81
2023-02-19T14:36:59.103Z,67.77
2023-02-19T14:39:38.253Z,67.89
2023-02-19T14:42:09.101Z,68.70
2023-02-19T14:45:03.092Z,68.68
2023-02-19T14:47:35.117Z,70.07
2023-02-19T14:50:03.913Z,70.50
2023-02-19T14:52:41.214Z,70.53
2023-02-19T14:55:32.660Z,70.71
2023-02-19T14:58:04.955Z,71.45
2023-02-19T15:00:37.920Z,72.44
2023-02-19T15:03:06.041Z,73.09
2023-02-19T15:05:39.115Z,73.94
2023-02-19T15:08:24.304Z,75.05
2023-02-19T15:10:51.318Z,75.53
2023-02-19T15:13:25.506Z,75.70
2023-02-19T15:15:53.604Z,75.88
2023-02-19T15:18:24.075Z,76.24
2023-02-19T15:20:52.823Z,76.50
2023-02-19T15:23:25.057Z,77.10
2023-02-19T15:25:52.680Z,77.59
2023-02-19T15:28:25.357Z,78.00
2023-02-19T15:31:07.752Z,78.59
2023-02-19T15:33:35.009Z,78.96
2023-02-19T15:36:06.706Z,78.59
2023-02-19T15:38:34.209Z,79.38
2023-02-19T15:41:01.530Z,79.89
2023-02-19T15:43:28.338Z,80.09
2023-02-19T15:46:00.561Z,80.09
2023-02-19T15:48:34.380Z,81.29
2023-02-19T15:51:10.263Z,82.34
2023-02-19T15:53:45.212Z,83.79
2023-02-19T15:56:22.000Z,84.43
2023-02-19T15:58:55.949Z,84.86
2023-02-19T16:01:26.743Z,85.63
2023-02-19T16:03:55.558Z,86.74
2023-02-19T16:06:26.600Z,87.23
2023-02-19T16:09:02.534Z,87.34
2023-02-19T16:12:00.851Z,88.19
2023-02-19T16:14:33.349Z,88.93
2023-02-19T16:17:21.088Z,89.62
2023-02-19T16:19:55.533Z,90.83
2023-02-19T16:22:26.135Z,91.19
2023-02-19T16:25:05.149Z,91.25
2023-02-19T16:27:37.964Z,92.23
2023-02-19T16:30:17.845Z,92.39
2023-02-19T16:32:47.023Z,91.88
2023-02-19T16:35:41.666Z,93.20
2023-02-19T16:38:16.812Z,93.36
2023-02-19T16:40:46.655Z,92.91
2023-02-19T16:43:13.454Z,93.47
2023-02-19T16:45:45.531Z,93.83
2023-02-19T16:48:13.574Z,94.04
2023-02-19T16:50:41.688Z,94.39
2023-02-19T16:53:19.714Z,94.30
2023-02-19T16:55:46.915Z,94.74
2023-02-19T16:58:14.003Z,94.65
2023-02-19T17:00:41.145Z,95.30
2023-02-19T17:03:11.772Z,95.81
2023-02-19T17:05:40.425Z,95.88
2023-02-19T17:08:38.647Z,96.98
2023-02-19T17:11:10.298Z,97.35
2023-02-19T17:13:37.443Z,97.18
2023-02-19T17:16:04.596Z,97.10
2023-02-19T17:18:31.570Z,96.99
2023-02-19T17:21:17.736Z,97.23
2023-02-19T17:23:44.703Z,97.21
2023-02-19T17:26:32.282Z,97.60
2023-02-19T17:29:00.797Z,98.46
2023-02-19T17:31:28.426Z,98.32
2023-02-19T17:33:55.352Z,99.12
2023-02-19T17:36:30.968Z,99.29
2023-02-19T17:38:59.335Z,99.46
2023-02-19T17:41:26.703Z,99.83
2023-02-19T17:43:53.841Z,100.00
2023-02-19T17:46:24.327Z,100.00
2023-02-19T17:48:51.640Z,100.00
2023-02-19T17:51:18.610Z,100.00
2023-02-19T17:53:46.780Z,100.00
2023-02-19T17:56:28.165Z,100.00
2023-02-19T17:58:56.217Z,100.00
2023-02-19T18:01:23.875Z,100.00
2023-02-19T18:03:51.478Z,100.00
2023-02-19T18:06:18.752Z,100.00
2023-02-19T18:08:53.517Z,100.00
2023-02-19T18:11:22.367Z,100.00
2023-02-19T18:13:50.946Z,100.00
2023-02-19T18:16:18.627Z,100.00
2023-02-19T18:18:45.828Z,100.00
2023-02-19T18:21:13.915Z,100.00
2023-02-19T18:23:41.771Z,100.00
2023-02-19T18:26:10.538Z,100.00
2023-02-19T18:28:38.394Z,100.00
2023-02-19T18:31:05.698Z,100.00
2023-02-19T18:33:34.148Z,100.00
2023-02-19T18:36:01.145Z,100.00
2023-02-19T18:38:28.415Z,100.00
2023-02-19T18:40:56.803Z,100.00
2023-02-19T18:43:25.160Z,100.00
2023-02-19T18:45:52.020Z,100.00
2023-02-19T18:48:19.019Z,100.00
2023-02-19T18:50:45.967Z,100.00
2023-02-19T18:53:14.082Z,100.00
2023-02-19T18:55:41.052Z,100.00
2023-02-19T18:58:08.374Z,100.00
2023-02-19T19:00:35.474Z,100.00
2023-02-19T19:03:02.341Z,100.00
2023-02-19T19:05:29.185Z,100.00
2023-02-19T19:07:59.498Z,100.00
2023-02-19T19:10:27.043Z,100.00
2023-02-19T19:12:54.529Z,100.00
2023-02-19T19:15:22.312Z,100.00
2023-02-19T19:17:49.931Z,100.00
2023-02-19T19:20:18.975Z,100.00
2023-02-19T19:22:46.195Z,100.00
2023-02-19T19:25:13.141Z,100.00
2023-02-19T19:27:40.052Z,100.00
2023-02-19T19:30:08.134Z,100.00
2023-02-19T19:32:35.031Z,100.00
2023-02-19T19:35:01.912Z,100.00
2023-02-19T19:37:29.482Z,100.00
2023-02-19T19:39:57.262Z,100.00
2023-02-19T19:42:24.363Z,100.00
2023-02-19T19:44:51.620Z,100.00
2023-02-19T19:47:18.525Z,100.00
2023-02-19T19:49:47.367Z,100.00
2023-02-19T19:52:14.630Z,100.00
2023-02-19T19:54:43.285Z,100.00
2023-02-19T19:57:10.672Z,100.00
2023-02-19T19:59:39.596Z,100.00
2023-02-19T20:02:07.857Z,100.00
2023-02-19T20:04:34.891Z,100.00
2023-02-19T20:07:02.315Z,100.00
2023-02-19T20:09:29.446Z,100.00
2023-02-19T20:11:56.949Z,100.00
2023-02-19T20:14:25.347Z,100.00
2023-02-19T20:16:53.140Z,100.00
2023-02-19T20:19:20.577Z,100.00
2023-02-19T20:21:49.747Z,100.00
2023-02-19T20:24:19.001Z,100.00
2023-02-19T20:26:46.196Z,100.00
2023-02-19T20:29:13.295Z,100.00
2023-02-19T20:31:40.661Z,100.00
2023-02-19T20:34:07.784Z,100.00
2023-02-19T20:36:42.672Z,100.00
2023-02-19T20:39:09.644Z,100.00
2023-02-19T20:41:36.530Z,100.00
2023-02-19T20:44:03.675Z,100.00
2023-02-19T20:46:30.504Z,100.00
2023-02-19T20:48:57.475Z,100.00
2023-02-19T20:51:24.628Z,100.00
2023-02-19T20:53:51.575Z,100.00
2023-02-19T20:56:18.425Z,100.00
2023-02-19T20:58:46.008Z,100.00
2023-02-19T21:01:13.994Z,100.00
2023-02-19T21:03:40.858Z,100.00
2023-02-19T21:06:07.900Z,100.00
2023-02-19T21:08:35.671Z,100.00
2023-02-19T21:11:02.514Z,100.00
2023-02-19T21:13:30.353Z,100.00
2023-02-19T21:15:57.230Z,100.00
2023-02-19T21:18:26.651Z,100.00
2023-02-19T21:20:53.674Z,100.00
2023-02-19T21:23:20.623Z,100.00
2023-02-19T21:25:49.121Z,100.00
2023-02-19T21:28:16.186Z,100.00
2023-02-19T21:30:43.063Z,100.00
2023-02-19T21:33:11.035Z,100.00
2023-02-19T21:35:37.931Z,100.00
2023-02-19T21:38:04.857Z,100.00
2023-02-19T21:40:33.007Z,100.00
2023-02-19T21:43:00.059Z,100.00
2023-02-19T21:45:27.103Z,100.00
2023-02-19T21:47:55.164Z,100.00
2023-02-19T21:50:23.003Z,100.00
2023-02-19T21:52:50.011Z,100.00
2023-02-19T21:55:19.149Z,100.00
2023-02-19T21:57:46.061Z,100.00
2023-02-19T22:00:13.658Z,100.00
2023-02-19T22:02:42.400Z,100.00
2023-02-19T22:05:09.672Z,100.00
2023-02-19T22:07:36.532Z,100.00
2023-02-19T22:10:04.271Z,100.00
2023-02-19T22:12:31.108Z,100.00
2023-02-19T22:14:57.974Z,100.00
2023-02-19T22:17:24.850Z,100.00
2023-02-19T22:19:51.764Z,100.00
2023-02-19T22:22:18.891Z,100.00
2023-02-19T22:24:45.732Z,100.00
2023-02-19T22:27:12.610Z,100.00
2023-02-19T22:29:39.544Z,100.00
2023-02-19T22:32:06.731Z,100.00
2023-02-19T22:34:37.811Z,100.00
2023-02-19T22:37:04.729Z,100.00
2023-02-19T22:39:31.824Z,100.00
2023-02-19T22:42:02.367Z,100.00
2023-02-19T22:44:29.610Z,100.00
2023-02-19T22:46:57.089Z,100.00
2023-02-19T22:49:24.405Z,100.00
2023-02-19T22:52:03.426Z,100.00
2023-02-19T22:54:30.539Z,100.00
2023-02-19T22:56:57.569Z,100.00
2023-02-19T22:59:24.474Z,100.00
2023-02-19T23:01:52.171Z,100.00
2023-02-19T23:04:22.860Z,100.00
2023-02-19T23:06:50.536Z,100.00
2023-02-19T23:09:21.408Z,100.00
2023-02-19T23:11:48.527Z,100.00
2023-02-19T23:14:21.735Z,100.00
2023-02-19T23:16:48.678Z,100.00
2023-02-19T23:19:16.060Z,100.00
2023-02-19T23:21:44.711Z,100.00
2023-02-19T23:24:12.692Z,100.00
2023-02-19T23:26:48.171Z,100.00
2023-02-19T23:29:20.283Z,100.00
2023-02-19T23:31:47.797Z,100.00
2023-02-19T23:34:15.082Z,100.00
2023-02-19T23:36:48.522Z,100.00
2023-02-19T23:39:18.028Z,100.00
2023-02-19T23:41:50.124Z,100.00
2023-02-19T23:44:18.022Z,100.00
2023-02-19T23:46:45.474Z,100.00
2023-02-19T23:49:12.887Z,100.00
2023-02-19T23:51:39.814Z,100.00
2023-02-19T23:54:07.219Z,100.00
2023-02-19T23:56:34.717Z,100.00
2023-02-19T23:59:01.667Z,100.00
